createdAt,value
2018-03-30T00:01:24.386Z,7.57
2018-03-30T00:03:52.883Z,7.78
2018-03-30T00:06:21.342Z,7.85
2018-03-30T00:08:49.877Z,7.83
2018-03-30T00:11:23.878Z,7.86
2018-03-30T00:13:52.370Z,7.91
2018-03-30T00:16:20.904Z,7.97
2018-03-30T00:18:49.398Z,7.96
2018-03-30T00:21:17.889Z,7.94
2018-03-30T00:23:46.382Z,7.91
2018-03-30T00:26:14.837Z,7.87
2018-03-30T00:28:43.352Z,7.98
2018-03-30T00:31:11.836Z,7.99
2018-03-30T00:33:40.325Z,7.89
2018-03-30T00:36:08.818Z,7.80
2018-03-30T00:38:37.318Z,7.79
2018-03-30T00:41:05.822Z,7.73
2018-03-30T00:43:34.299Z,7.65
2018-03-30T00:46:02.790Z,7.57
2018-03-30T00:48:31.302Z,7.55
2018-03-30T00:50:59.790Z,7.48
2018-03-30T00:53:39.927Z,7.44
2018-03-30T00:56:08.375Z,7.39
2018-03-30T00:58:36.880Z,7.29
2018-03-30T01:01:05.338Z,7.30
2018-03-30T01:03:33.830Z,7.11
2018-03-30T01:06:02.334Z,7.12
2018-03-30T01:08:30.814Z,6.99
2018-03-30T01:10:59.380Z,7.00
2018-03-30T01:13:27.861Z,6.99
2018-03-30T01:15:56.373Z,6.95
2018-03-30T01:18:24.880Z,6.92
2018-03-30T01:20:53.386Z,6.91
2018-03-30T01:23:22.259Z,6.87
2018-03-30T01:25:50.810Z,6.84
2018-03-30T01:28:19.282Z,6.73
2018-03-30T01:30:47.779Z,6.72
2018-03-30T01:33:16.234Z,6.57
2018-03-30T01:35:44.734Z,6.63
2018-03-30T01:38:13.231Z,6.63
2018-03-30T01:40:41.706Z,6.62
2018-03-30T01:43:10.214Z,6.65
2018-03-30T01:45:38.714Z,6.65
2018-03-30T01:48:07.174Z,6.64
2018-03-30T01:50:35.692Z,6.61
2018-03-30T01:53:04.153Z,6.65
2018-03-30T01:55:32.642Z,6.64
2018-03-30T01:58:01.138Z,6.65
2018-03-30T02:00:29.630Z,6.65
2018-03-30T02:02:58.140Z,6.64
2018-03-30T02:05:26.681Z,6.64
2018-03-30T02:07:55.154Z,6.62
2018-03-30T02:10:23.665Z,6.55
2018-03-30T02:12:52.169Z,6.50
2018-03-30T02:15:20.629Z,6.52
2018-03-30T02:17:49.131Z,6.43
2018-03-30T02:20:17.590Z,6.43
2018-03-30T02:22:46.078Z,6.37
2018-03-30T02:25:14.570Z,6.38
2018-03-30T02:27:43.058Z,6.36
2018-03-30T02:30:11.523Z,6.35
2018-03-30T02:32:40.034Z,6.29
2018-03-30T02:35:08.499Z,6.16
2018-03-30T02:37:36.985Z,6.26
2018-03-30T02:40:05.523Z,6.19
2018-03-30T02:42:33.997Z,6.18
2018-03-30T02:45:02.517Z,6.16
2018-03-30T02:47:30.984Z,6.15
2018-03-30T02:49:59.470Z,6.15
2018-03-30T02:52:27.974Z,6.06
2018-03-30T02:54:56.462Z,5.98
2018-03-30T02:57:24.935Z,6.00
2018-03-30T02:59:53.442Z,6.01
2018-03-30T03:02:21.898Z,6.02
2018-03-30T03:04:50.404Z,6.02
2018-03-30T03:07:18.874Z,5.99
2018-03-30T03:09:47.341Z,5.98
2018-03-30T03:12:15.847Z,5.99
2018-03-30T03:14:44.342Z,5.95
2018-03-30T03:17:12.821Z,5.92
2018-03-30T03:19:41.322Z,5.91
2018-03-30T03:22:09.822Z,5.88
2018-03-30T03:24:38.331Z,5.88
2018-03-30T03:27:06.822Z,5.78
2018-03-30T03:29:35.327Z,5.83
2018-03-30T03:32:03.814Z,5.76
2018-03-30T03:34:32.293Z,5.72
2018-03-30T03:37:00.838Z,5.73
2018-03-30T03:39:29.302Z,5.77
2018-03-30T03:41:57.782Z,5.77
2018-03-30T03:44:26.304Z,5.77
2018-03-30T03:46:54.836Z,5.77
2018-03-30T03:49:23.342Z,5.70
2018-03-30T03:51:51.816Z,5.61
2018-03-30T03:54:20.314Z,5.59
2018-03-30T03:56:48.830Z,5.66
2018-03-30T03:59:17.304Z,5.76
2018-03-30T04:01:45.825Z,5.79
2018-03-30T04:04:14.286Z,5.82
2018-03-30T04:06:42.757Z,5.80
2018-03-30T04:09:11.276Z,5.76
2018-03-30T04:11:39.787Z,5.77
2018-03-30T04:14:08.255Z,5.77
2018-03-30T04:16:36.862Z,5.64
2018-03-30T04:19:05.344Z,5.75
2018-03-30T04:21:33.870Z,5.75
2018-03-30T04:24:02.358Z,5.78
2018-03-30T04:26:30.831Z,5.77
2018-03-30T04:28:59.334Z,5.76
2018-03-30T04:31:27.799Z,5.82
2018-03-30T04:33:56.302Z,5.88
2018-03-30T04:36:24.765Z,5.97
2018-03-30T04:38:53.271Z,6.03
2018-03-30T04:41:21.786Z,6.10
2018-03-30T04:43:50.264Z,6.28
2018-03-30T04:46:18.786Z,6.32
2018-03-30T04:48:47.331Z,6.40
2018-03-30T04:51:15.802Z,6.56
2018-03-30T04:53:44.310Z,6.68
2018-03-30T04:56:12.793Z,6.82
2018-03-30T04:58:41.344Z,7.01
2018-03-30T05:01:09.822Z,7.14
2018-03-30T05:03:38.286Z,7.30
2018-03-30T05:06:06.804Z,7.44
2018-03-30T05:08:35.336Z,7.77
2018-03-30T05:11:03.921Z,7.86
2018-03-30T05:13:32.389Z,7.98
2018-03-30T05:16:00.890Z,8.19
2018-03-30T05:18:29.409Z,8.27
2018-03-30T05:20:57.954Z,8.46
2018-03-30T05:23:26.513Z,8.36
2018-03-30T05:25:54.995Z,8.65
2018-03-30T05:28:24.122Z,8.79
2018-03-30T05:30:52.634Z,8.96
2018-03-30T05:33:21.183Z,9.25
2018-03-30T05:35:49.690Z,9.27
2018-03-30T05:38:21.038Z,9.42
2018-03-30T05:40:49.509Z,9.49
2018-03-30T05:43:18.018Z,9.78
2018-03-30T05:45:46.543Z,10.07
2018-03-30T05:48:15.114Z,10.11
2018-03-30T05:50:43.640Z,10.40
2018-03-30T05:53:12.136Z,10.48
2018-03-30T05:55:40.709Z,10.78
2018-03-30T05:58:09.240Z,10.75
2018-03-30T06:00:37.773Z,10.84
2018-03-30T06:03:06.338Z,10.81
2018-03-30T06:05:34.850Z,10.82
2018-03-30T06:08:03.543Z,10.99
2018-03-30T06:10:32.002Z,11.34
2018-03-30T06:13:00.488Z,11.55
2018-03-30T06:15:29.147Z,11.73
2018-03-30T06:17:57.642Z,11.77
2018-03-30T06:20:26.246Z,11.99
2018-03-30T06:22:54.721Z,12.16
2018-03-30T06:25:23.235Z,12.23
2018-03-30T06:27:51.816Z,12.34
2018-03-30T06:30:20.337Z,12.40
2018-03-30T06:32:48.834Z,12.47
2018-03-30T06:35:17.345Z,12.76
2018-03-30T06:37:45.829Z,12.92
2018-03-30T06:40:14.357Z,12.95
2018-03-30T06:42:42.866Z,12.95
2018-03-30T06:45:11.367Z,12.86
2018-03-30T06:47:39.848Z,13.00
2018-03-30T06:50:08.359Z,13.17
2018-03-30T06:52:36.879Z,13.23
2018-03-30T06:55:05.366Z,13.49
2018-03-30T06:57:33.945Z,13.47
2018-03-30T07:00:02.456Z,13.45
2018-03-30T07:02:30.926Z,13.66
2018-03-30T07:04:59.428Z,13.88
2018-03-30T07:07:31.107Z,14.05
2018-03-30T07:09:59.608Z,13.76
2018-03-30T07:12:28.190Z,13.82
2018-03-30T07:14:56.720Z,13.76
2018-03-30T07:17:25.213Z,14.02
2018-03-30T07:19:53.729Z,14.07
2018-03-30T07:22:22.284Z,14.35
2018-03-30T07:24:50.889Z,14.43
2018-03-30T07:27:19.393Z,14.43
2018-03-30T07:29:47.936Z,14.43
2018-03-30T07:32:16.413Z,14.32
2018-03-30T07:34:44.941Z,14.41
2018-03-30T07:37:13.457Z,14.44
2018-03-30T07:39:41.963Z,14.45
2018-03-30T07:42:10.481Z,14.64
2018-03-30T07:44:39.776Z,14.81
2018-03-30T07:47:08.648Z,14.77
2018-03-30T07:49:37.186Z,14.97
2018-03-30T07:52:05.658Z,15.02
2018-03-30T07:54:34.162Z,15.02
2018-03-30T07:57:02.650Z,14.77
2018-03-30T07:59:31.198Z,15.02
2018-03-30T08:01:59.779Z,15.09
2018-03-30T08:04:28.298Z,15.21
2018-03-30T08:06:56.852Z,15.20
2018-03-30T08:09:25.339Z,15.28
2018-03-30T08:11:53.877Z,15.38
2018-03-30T08:14:22.393Z,15.45
2018-03-30T08:16:50.908Z,15.58
2018-03-30T08:19:19.423Z,15.68
2018-03-30T08:21:47.950Z,15.86
2018-03-30T08:24:16.422Z,15.93
2018-03-30T08:26:44.937Z,16.00
2018-03-30T08:29:13.423Z,16.08
2018-03-30T08:31:41.941Z,16.12
2018-03-30T08:34:10.504Z,16.23
2018-03-30T08:36:39.032Z,16.30
2018-03-30T08:39:07.558Z,16.27
2018-03-30T08:41:36.041Z,16.11
2018-03-30T08:44:04.557Z,16.28
2018-03-30T08:46:33.034Z,16.23
2018-03-30T08:49:01.545Z,16.28
2018-03-30T08:51:30.036Z,16.43
2018-03-30T08:53:58.550Z,16.41
2018-03-30T08:56:27.055Z,16.39
2018-03-30T08:58:55.542Z,16.65
2018-03-30T09:01:24.072Z,16.70
2018-03-30T09:03:52.547Z,16.82
2018-03-30T09:06:21.062Z,16.74
2018-03-30T09:08:49.577Z,16.77
2018-03-30T09:11:18.090Z,16.65
2018-03-30T09:13:46.608Z,16.69
2018-03-30T09:16:15.145Z,16.95
2018-03-30T09:18:44.561Z,16.95
2018-03-30T09:21:13.070Z,17.12
2018-03-30T09:23:41.583Z,17.19
2018-03-30T09:26:10.058Z,17.17
2018-03-30T09:28:38.579Z,17.33
2018-03-30T09:31:07.140Z,17.49
2018-03-30T09:33:35.654Z,17.49
2018-03-30T09:36:04.162Z,17.44
2018-03-30T09:38:32.674Z,17.52
2018-03-30T09:41:01.190Z,17.64
2018-03-30T09:43:29.702Z,17.81
2018-03-30T09:45:58.174Z,17.90
2018-03-30T09:48:26.689Z,17.82
2018-03-30T09:50:55.171Z,17.98
2018-03-30T09:53:23.634Z,18.01
2018-03-30T09:55:52.150Z,17.95
2018-03-30T09:58:20.706Z,18.03
2018-03-30T10:00:50.018Z,18.11
2018-03-30T10:03:18.544Z,17.98
2018-03-30T10:05:47.062Z,18.12
2018-03-30T10:08:15.574Z,18.14
2018-03-30T10:10:44.171Z,18.19
2018-03-30T10:13:12.670Z,18.31
2018-03-30T10:15:41.178Z,18.21
2018-03-30T10:18:09.691Z,18.08
2018-03-30T10:20:38.196Z,18.26
2018-03-30T10:23:06.662Z,18.24
2018-03-30T10:25:35.178Z,18.23
2018-03-30T10:28:03.648Z,18.43
2018-03-30T10:30:32.132Z,18.20
2018-03-30T10:33:00.594Z,18.18
2018-03-30T10:35:29.054Z,18.44
2018-03-30T10:37:57.557Z,18.50
2018-03-30T10:40:26.050Z,18.44
2018-03-30T10:42:54.558Z,18.59
2018-03-30T10:45:23.022Z,18.63
2018-03-30T10:47:51.526Z,18.61
2018-03-30T10:50:20.027Z,18.66
2018-03-30T10:52:48.538Z,18.68
2018-03-30T10:55:17.006Z,18.43
2018-03-30T10:57:45.480Z,18.63
2018-03-30T11:00:13.990Z,18.46
2018-03-30T11:02:42.461Z,18.59
2018-03-30T11:05:10.978Z,18.69
2018-03-30T11:07:39.490Z,18.62
2018-03-30T11:10:07.991Z,18.58
2018-03-30T11:12:36.515Z,18.59
2018-03-30T11:15:04.986Z,18.45
2018-03-30T11:17:33.450Z,18.51
2018-03-30T11:20:01.975Z,18.58
2018-03-30T11:22:30.437Z,18.60
2018-03-30T11:24:58.907Z,18.68
2018-03-30T11:27:27.411Z,18.61
2018-03-30T11:29:55.927Z,18.63
2018-03-30T11:32:24.487Z,18.85
2018-03-30T11:34:52.946Z,18.63
2018-03-30T11:37:21.410Z,18.84
2018-03-30T11:39:49.914Z,18.81
2018-03-30T11:42:18.413Z,18.89
2018-03-30T11:44:47.032Z,18.80
2018-03-30T11:47:15.554Z,18.86
2018-03-30T11:49:44.054Z,18.77
2018-03-30T11:52:12.554Z,18.90
2018-03-30T11:54:41.061Z,18.98
2018-03-30T11:57:09.523Z,19.08
2018-03-30T11:59:38.035Z,19.12
2018-03-30T12:02:06.506Z,19.12
2018-03-30T12:04:35.017Z,19.11
2018-03-30T12:07:03.513Z,19.22
2018-03-30T12:09:32.018Z,19.18
2018-03-30T12:12:00.478Z,19.33
2018-03-30T12:14:28.987Z,19.31
2018-03-30T12:16:57.529Z,19.36
2018-03-30T12:19:26.021Z,19.44
2018-03-30T12:21:54.527Z,19.55
2018-03-30T12:24:23.051Z,19.55
2018-03-30T12:26:51.540Z,19.66
2018-03-30T12:29:20.038Z,19.77
2018-03-30T12:31:48.503Z,19.78
2018-03-30T12:34:17.028Z,19.80
2018-03-30T12:36:45.530Z,19.95
2018-03-30T12:39:14.054Z,19.88
2018-03-30T12:41:42.522Z,20.05
2018-03-30T12:44:11.026Z,20.05
2018-03-30T12:46:39.498Z,20.13
2018-03-30T12:49:08.002Z,20.21
2018-03-30T12:51:36.470Z,20.21
2018-03-30T12:54:05.002Z,20.25
2018-03-30T12:56:33.521Z,20.26
2018-03-30T12:59:02.030Z,20.35
2018-03-30T13:01:30.558Z,20.36
2018-03-30T13:03:59.091Z,20.42
2018-03-30T13:06:27.586Z,20.41
2018-03-30T13:08:56.086Z,20.34
2018-03-30T13:11:24.610Z,20.38
2018-03-30T13:13:53.088Z,20.40
2018-03-30T13:16:21.608Z,20.47
2018-03-30T13:18:50.103Z,20.37
2018-03-30T13:21:18.664Z,20.50
2018-03-30T13:23:47.195Z,20.54
2018-03-30T13:26:15.709Z,20.62
2018-03-30T13:28:44.174Z,20.55
2018-03-30T13:31:12.688Z,20.59
2018-03-30T13:33:41.202Z,20.69
2018-03-30T13:36:09.687Z,20.72
2018-03-30T13:38:38.173Z,20.76
2018-03-30T13:41:06.692Z,20.78
2018-03-30T13:43:35.198Z,20.78
2018-03-30T13:46:03.704Z,20.84
2018-03-30T13:48:32.210Z,20.76
2018-03-30T13:54:17.683Z,20.88
2018-03-30T13:56:46.221Z,20.87
2018-03-30T13:59:18.597Z,20.98
2018-03-30T14:04:49.510Z,20.87
2018-03-30T14:10:27.793Z,20.84
2018-03-30T14:12:58.238Z,20.90
2018-03-30T14:15:29.535Z,20.86
2018-03-30T14:21:11.715Z,20.71
2018-03-30T14:23:41.088Z,20.81
2018-03-30T14:26:23.314Z,20.71
2018-03-30T14:29:02.729Z,20.71
2018-03-30T14:31:36.790Z,20.68
2018-03-30T14:34:06.345Z,20.65
2018-03-30T14:39:40.219Z,20.66
2018-03-30T14:42:11.544Z,20.68
2018-03-30T14:44:41.018Z,20.60
2018-03-30T14:47:09.556Z,20.64
2018-03-30T14:49:42.374Z,20.63
2018-03-30T14:52:15.557Z,20.58
2018-03-30T14:54:46.472Z,20.65
2018-03-30T14:57:22.498Z,20.62
2018-03-30T14:59:53.516Z,20.47
2018-03-30T15:02:36.875Z,20.61
2018-03-30T15:05:21.950Z,20.56
2018-03-30T15:07:52.314Z,20.56
2018-03-30T15:10:34.194Z,20.51
2018-03-30T15:13:10.368Z,20.44
2018-03-30T15:15:57.304Z,20.47
2018-03-30T15:18:30.590Z,20.49
2018-03-30T15:21:12.594Z,20.40
2018-03-30T15:23:44.827Z,20.35
2018-03-30T15:26:24.771Z,20.30
2018-03-30T15:29:03.184Z,20.28
2018-03-30T15:31:38.207Z,20.26
2018-03-30T15:37:15.706Z,20.07
2018-03-30T15:39:46.034Z,20.19
2018-03-30T15:42:15.422Z,20.06
2018-03-30T15:44:44.010Z,20.15
2018-03-30T15:47:14.114Z,20.13
2018-03-30T15:49:42.651Z,20.05
2018-03-30T15:52:21.113Z,19.96
2018-03-30T15:54:49.653Z,19.91
2018-03-30T15:57:18.159Z,19.92
2018-03-30T15:59:47.478Z,19.87
2018-03-30T16:02:15.982Z,19.77
2018-03-30T16:04:44.502Z,19.73
2018-03-30T16:07:13.038Z,19.67
2018-03-30T16:09:46.943Z,19.60
2018-03-30T16:12:17.161Z,19.61
2018-03-30T16:14:45.718Z,19.51
2018-03-30T16:17:14.242Z,19.37
2018-03-30T16:19:42.230Z,19.35
2018-03-30T16:22:10.146Z,19.23
2018-03-30T16:24:38.058Z,19.24
2018-03-30T16:27:06.072Z,19.19
2018-03-30T16:29:34.055Z,19.14
2018-03-30T16:32:02.074Z,19.11
2018-03-30T16:34:30.050Z,18.99
2018-03-30T16:36:58.002Z,18.94
2018-03-30T16:39:25.651Z,18.77
2018-03-30T16:41:53.333Z,18.74
2018-03-30T16:44:20.977Z,18.82
2018-03-30T16:46:48.614Z,18.70
2018-03-30T16:49:16.286Z,18.75
2018-03-30T16:51:43.954Z,18.69
2018-03-30T16:54:11.594Z,18.57
2018-03-30T16:56:39.271Z,18.59
2018-03-30T16:59:06.946Z,18.54
2018-03-30T17:01:34.599Z,18.45
2018-03-30T17:04:02.302Z,18.32
2018-03-30T17:06:29.938Z,18.25
2018-03-30T17:08:57.611Z,18.29
2018-03-30T17:11:25.307Z,18.21
2018-03-30T17:13:52.947Z,18.11
2018-03-30T17:16:20.614Z,18.21
2018-03-30T17:18:48.247Z,18.15
2018-03-30T17:21:15.913Z,18.02
2018-03-30T17:23:43.645Z,18.04
2018-03-30T17:26:11.272Z,17.93
2018-03-30T17:28:38.956Z,17.90
2018-03-30T17:31:06.591Z,17.86
2018-03-30T17:33:34.338Z,17.79
2018-03-30T17:36:01.978Z,17.73
2018-03-30T17:38:29.610Z,17.67
2018-03-30T17:40:57.287Z,17.62
2018-03-30T17:43:24.927Z,17.52
2018-03-30T17:45:52.597Z,17.51
2018-03-30T17:48:20.234Z,17.45
2018-03-30T17:50:47.915Z,17.42
2018-03-30T17:53:15.581Z,17.38
2018-03-30T17:55:43.276Z,17.24
2018-03-30T17:58:10.914Z,17.22
2018-03-30T18:00:38.550Z,17.08
2018-03-30T18:03:06.236Z,17.02
2018-03-30T18:05:33.876Z,16.96
2018-03-30T18:08:01.544Z,16.86
2018-03-30T18:10:29.178Z,16.88
2018-03-30T18:12:56.854Z,16.84
2018-03-30T18:15:24.494Z,16.75
2018-03-30T18:17:52.130Z,16.71
2018-03-30T18:20:19.812Z,16.52
2018-03-30T18:22:47.482Z,16.52
2018-03-30T18:25:15.169Z,16.54
2018-03-30T18:27:42.804Z,16.39
2018-03-30T18:30:10.479Z,16.35
2018-03-30T18:32:38.124Z,16.33
2018-03-30T18:35:05.798Z,16.30
2018-03-30T18:37:33.479Z,16.25
2018-03-30T18:40:01.150Z,16.21
2018-03-30T18:42:29.790Z,16.00
2018-03-30T18:44:57.474Z,16.03
2018-03-30T18:47:25.106Z,16.01
2018-03-30T18:49:52.773Z,15.91
2018-03-30T18:52:20.450Z,15.91
2018-03-30T18:54:48.086Z,15.81
2018-03-30T18:57:15.722Z,15.75
2018-03-30T18:59:43.390Z,15.58
2018-03-30T19:02:11.030Z,15.55
2018-03-30T19:04:38.702Z,15.43
2018-03-30T19:07:06.334Z,15.52
2018-03-30T19:09:33.979Z,15.47
2018-03-30T19:12:01.661Z,15.39
2018-03-30T19:14:29.306Z,15.41
2018-03-30T19:16:56.994Z,15.35
2018-03-30T19:19:24.630Z,15.32
2018-03-30T19:21:52.338Z,15.30
2018-03-30T19:24:19.970Z,15.14
2018-03-30T19:26:47.649Z,15.06
2018-03-30T19:29:15.285Z,15.15
2018-03-30T19:31:42.954Z,15.09
2018-03-30T19:34:10.642Z,15.09
2018-03-30T19:36:38.278Z,15.02
2018-03-30T19:39:05.914Z,15.01
2018-03-30T19:41:33.582Z,14.88
2018-03-30T19:44:01.257Z,14.73
2018-03-30T19:46:28.915Z,14.71
2018-03-30T19:48:56.588Z,14.67
2018-03-30T19:51:24.234Z,14.63
2018-03-30T19:53:51.918Z,14.65
2018-03-30T19:56:19.564Z,14.47
2018-03-30T19:58:47.248Z,14.40
2018-03-30T20:01:14.949Z,14.35
2018-03-30T20:03:42.590Z,14.29
2018-03-30T20:06:10.218Z,14.25
2018-03-30T20:08:37.887Z,14.21
2018-03-30T20:11:05.556Z,14.10
2018-03-30T20:13:33.198Z,14.12
2018-03-30T20:16:00.962Z,14.07
2018-03-30T20:18:28.594Z,14.07
2018-03-30T20:20:56.235Z,14.00
2018-03-30T20:23:23.902Z,13.87
2018-03-30T20:25:51.532Z,13.91
2018-03-30T20:28:19.198Z,13.85
2018-03-30T20:30:46.833Z,13.86
2018-03-30T20:33:14.503Z,13.84
2018-03-30T20:35:42.138Z,13.73
2018-03-30T20:38:09.828Z,13.73
2018-03-30T20:40:37.502Z,13.68
2018-03-30T20:43:05.188Z,13.61
2018-03-30T20:45:32.862Z,13.59
2018-03-30T20:48:00.503Z,13.58
2018-03-30T20:50:28.174Z,13.56
2018-03-30T20:52:55.874Z,13.55
2018-03-30T20:55:23.541Z,13.51
2018-03-30T20:57:51.174Z,13.44
2018-03-30T21:00:18.861Z,13.39
2018-03-30T21:02:46.493Z,13.39
2018-03-30T21:05:14.121Z,13.35
2018-03-30T21:07:41.794Z,13.29
2018-03-30T21:10:09.474Z,13.26
2018-03-30T21:12:37.113Z,13.23
2018-03-30T21:15:04.749Z,13.16
2018-03-30T21:17:32.427Z,13.07
2018-03-30T21:20:00.067Z,13.00
2018-03-30T21:22:27.744Z,13.01
2018-03-30T21:24:55.422Z,12.99
2018-03-30T21:27:23.066Z,12.97
2018-03-30T21:29:50.746Z,12.93
2018-03-30T21:32:18.406Z,12.86
2018-03-30T21:34:46.038Z,12.77
2018-03-30T21:37:13.724Z,12.70
2018-03-30T21:39:41.409Z,12.68
2018-03-30T21:42:09.043Z,12.61
2018-03-30T21:44:36.728Z,12.57
2018-03-30T21:47:04.426Z,12.45
2018-03-30T21:49:32.102Z,12.55
2018-03-30T21:51:59.774Z,12.56
2018-03-30T21:54:27.464Z,12.56
2018-03-30T21:56:55.099Z,12.53
2018-03-30T21:59:22.766Z,12.49
2018-03-30T22:01:50.413Z,12.45
2018-03-30T22:04:18.090Z,12.41
2018-03-30T22:06:45.761Z,12.38
2018-03-30T22:09:13.405Z,12.40
2018-03-30T22:11:41.089Z,12.44
2018-03-30T22:14:08.726Z,12.45
2018-03-30T22:16:36.413Z,12.46
2018-03-30T22:19:04.081Z,12.44
2018-03-30T22:21:31.714Z,12.41
2018-03-30T22:23:59.383Z,12.39
2018-03-30T22:26:27.068Z,12.38
2018-03-30T22:28:54.718Z,12.37
2018-03-30T22:31:22.387Z,12.34
2018-03-30T22:33:50.062Z,12.39
2018-03-30T22:36:17.729Z,12.40
2018-03-30T22:38:45.362Z,12.37
2018-03-30T22:41:13.029Z,12.36
2018-03-30T22:43:40.684Z,12.33
2018-03-30T22:46:08.376Z,12.33
2018-03-30T22:48:36.014Z,12.33
2018-03-30T22:51:03.650Z,12.34
2018-03-30T22:53:31.327Z,12.33
2018-03-30T22:55:58.997Z,12.30
2018-03-30T22:58:26.677Z,12.29
2018-03-30T23:00:54.310Z,12.27
2018-03-30T23:03:21.987Z,12.28
2018-03-30T23:05:49.987Z,12.24
2018-03-30T23:08:17.927Z,12.27
2018-03-30T23:10:45.870Z,12.28
2018-03-30T23:13:13.858Z,12.28
2018-03-30T23:15:41.826Z,12.25
2018-03-30T23:18:09.813Z,12.23
2018-03-30T23:20:37.786Z,12.23
2018-03-30T23:23:05.769Z,12.21
2018-03-30T23:25:33.757Z,12.19
2018-03-30T23:28:01.708Z,12.08
2018-03-30T23:30:29.714Z,12.13
2018-03-30T23:32:57.651Z,12.10
2018-03-30T23:35:25.660Z,12.09
2018-03-30T23:37:53.598Z,12.06
2018-03-30T23:40:21.522Z,12.05
2018-03-30T23:42:49.531Z,12.06
2018-03-30T23:45:17.494Z,12.04
2018-03-30T23:47:45.476Z,12.03
2018-03-30T23:50:13.430Z,12.02
2018-03-30T23:52:41.407Z,11.96
2018-03-30T23:55:09.381Z,11.94
2018-03-30T23:57:37.341Z,11.96
